createdAt,value
2019-05-19T00:01:16.900Z,18.80
2019-05-19T00:03:51.318Z,18.50
2019-05-19T00:06:26.004Z,18.40
2019-05-19T00:09:29.717Z,18.60
2019-05-19T00:12:59.169Z,18.70
2019-05-19T00:15:38.505Z,18.70
2019-05-19T00:18:14.268Z,18.90
2019-05-19T00:20:48.874Z,18.80
2019-05-19T00:23:23.151Z,18.80
2019-05-19T00:25:57.717Z,18.80
2019-05-19T00:28:32.366Z,18.80
2019-05-19T00:31:06.959Z,18.80
2019-05-19T00:33:41.358Z,18.90
2019-05-19T00:36:15.805Z,19.00
2019-05-19T00:38:51.434Z,18.90
2019-05-19T00:41:26.079Z,19.10
2019-05-19T00:44:00.808Z,19.20
2019-05-19T00:46:35.105Z,19.20
2019-05-19T00:49:09.540Z,19.40
2019-05-19T00:51:44.113Z,19.50
2019-05-19T00:54:19.632Z,19.60
2019-05-19T00:56:54.626Z,19.60
2019-05-19T00:59:29.865Z,19.80
2019-05-19T01:02:04.220Z,19.90
2019-05-19T01:04:38.925Z,20.00
2019-05-19T01:07:13.394Z,20.00
2019-05-19T01:09:47.846Z,20.00
2019-05-19T01:12:22.367Z,20.10
2019-05-19T01:14:56.730Z,20.20
2019-05-19T01:17:31.137Z,20.40
2019-05-19T01:20:06.824Z,20.50
2019-05-19T01:22:41.356Z,20.60
2019-05-19T01:25:17.123Z,20.70
2019-05-19T01:27:51.572Z,20.80
2019-05-19T01:30:26.334Z,20.90
2019-05-19T01:33:02.277Z,21.00
2019-05-19T01:35:36.713Z,21.10
2019-05-19T01:38:11.507Z,21.30
2019-05-19T01:40:46.362Z,21.30
2019-05-19T01:43:21.255Z,21.50
2019-05-19T01:45:55.949Z,21.70
2019-05-19T01:48:30.753Z,21.80
2019-05-19T01:51:05.438Z,22.00
2019-05-19T01:53:41.322Z,22.10
2019-05-19T01:56:16.157Z,22.30
2019-05-19T01:58:51.997Z,22.50
2019-05-19T02:01:27.234Z,22.60
2019-05-19T02:04:02.022Z,22.70
2019-05-19T02:06:38.733Z,22.90
2019-05-19T02:09:14.552Z,23.20
2019-05-19T02:11:49.294Z,23.40
2019-05-19T02:14:24.211Z,23.60
2019-05-19T02:16:58.757Z,23.80
2019-05-19T02:19:33.718Z,23.90
2019-05-19T02:22:08.939Z,24.10
2019-05-19T02:24:43.783Z,24.30
2019-05-19T02:27:18.958Z,24.50
2019-05-19T02:29:53.894Z,24.70
2019-05-19T02:32:28.778Z,24.80
2019-05-19T02:35:03.567Z,25.00
2019-05-19T02:37:50.422Z,25.20
2019-05-19T02:40:25.945Z,25.30
2019-05-19T02:43:01.170Z,25.50
2019-05-19T02:45:38.022Z,25.80
2019-05-19T02:48:14.703Z,25.90
2019-05-19T02:50:52.987Z,26.00
2019-05-19T02:53:28.061Z,26.10
2019-05-19T02:56:04.164Z,26.20
2019-05-19T02:58:38.967Z,26.40
2019-05-19T03:01:13.826Z,26.60
2019-05-19T03:03:48.449Z,26.80
2019-05-19T03:06:23.161Z,26.90
2019-05-19T03:08:57.863Z,27.00
2019-05-19T03:11:33.462Z,27.00
2019-05-19T03:14:08.192Z,27.10
2019-05-19T03:16:42.799Z,27.20
2019-05-19T03:19:18.786Z,27.20
2019-05-19T03:21:58.672Z,27.30
2019-05-19T03:24:33.260Z,27.20
2019-05-19T03:27:08.262Z,27.20
2019-05-19T03:29:45.014Z,27.20
2019-05-19T03:32:21.177Z,27.20
2019-05-19T03:34:56.109Z,27.40
2019-05-19T03:37:31.239Z,27.50
2019-05-19T03:40:07.712Z,27.80
2019-05-19T03:42:43.259Z,27.90
2019-05-19T03:45:18.086Z,27.90
2019-05-19T03:47:52.853Z,27.90
2019-05-19T03:50:27.942Z,28.00
2019-05-19T03:53:02.933Z,28.10
2019-05-19T03:55:37.680Z,28.20
2019-05-19T03:58:12.206Z,28.40
2019-05-19T04:00:47.201Z,28.50
2019-05-19T04:03:21.899Z,28.60
2019-05-19T04:05:56.463Z,28.60
2019-05-19T04:08:31.533Z,28.50
2019-05-19T04:11:06.426Z,28.60
2019-05-19T04:13:41.528Z,28.70
2019-05-19T04:16:16.576Z,28.80
2019-05-19T04:18:53.128Z,29.10
2019-05-19T04:21:27.740Z,29.30
2019-05-19T04:24:02.704Z,29.50
2019-05-19T04:26:57.327Z,29.60
2019-05-19T04:29:32.945Z,29.80
2019-05-19T04:32:08.922Z,30.10
2019-05-19T04:34:45.000Z,30.30
2019-05-19T04:37:20.303Z,30.40
2019-05-19T04:39:56.034Z,30.50
2019-05-19T04:42:30.921Z,30.60
2019-05-19T04:45:08.951Z,30.90
2019-05-19T04:47:43.741Z,31.00
2019-05-19T04:50:19.764Z,31.00
2019-05-19T04:52:54.207Z,31.10
2019-05-19T04:55:28.667Z,31.40
2019-05-19T04:58:03.367Z,31.50
2019-05-19T05:00:38.149Z,31.70
2019-05-19T05:03:12.869Z,31.80
2019-05-19T05:05:50.762Z,31.90
2019-05-19T05:08:30.429Z,32.00
2019-05-19T05:11:02.806Z,32.10
2019-05-19T05:13:37.532Z,32.20
2019-05-19T05:16:12.603Z,32.50
2019-05-19T05:18:48.499Z,32.60
2019-05-19T05:21:24.298Z,32.70
2019-05-19T05:23:59.095Z,32.80
2019-05-19T05:26:33.590Z,33.00
2019-05-19T05:29:08.706Z,33.10
2019-05-19T05:31:45.171Z,33.00
2019-05-19T05:34:24.904Z,33.00
2019-05-19T05:36:59.569Z,33.00
2019-05-19T05:39:36.888Z,33.10
2019-05-19T05:42:18.243Z,33.40
2019-05-19T05:44:53.136Z,33.50
2019-05-19T05:47:30.159Z,33.60
2019-05-19T05:50:10.473Z,33.70
2019-05-19T05:52:46.566Z,33.80
2019-05-19T05:55:23.939Z,33.80
2019-05-19T05:57:58.474Z,34.10
2019-05-19T06:00:34.242Z,34.20
2019-05-19T06:03:09.265Z,34.20
2019-05-19T06:05:44.034Z,34.20
2019-05-19T06:08:18.533Z,34.20
2019-05-19T06:10:53.215Z,34.30
2019-05-19T06:13:27.977Z,34.20
2019-05-19T06:16:03.388Z,34.30
2019-05-19T06:18:39.594Z,34.50
2019-05-19T06:21:14.668Z,34.50
2019-05-19T06:23:49.958Z,34.50
2019-05-19T06:26:25.977Z,34.50
2019-05-19T06:29:01.212Z,34.60
2019-05-19T06:31:36.136Z,34.60
2019-05-19T06:34:12.447Z,34.70
2019-05-19T06:36:48.653Z,34.70
2019-05-19T06:39:23.447Z,34.70
2019-05-19T06:41:59.934Z,34.60
2019-05-19T06:44:36.352Z,34.30
2019-05-19T06:47:12.036Z,34.40
2019-05-19T06:49:52.070Z,34.70
2019-05-19T06:52:27.137Z,34.70
2019-05-19T06:55:01.949Z,34.60
2019-05-19T06:57:39.674Z,35.00
2019-05-19T07:00:18.855Z,35.20
2019-05-19T07:02:53.768Z,35.00
2019-05-19T07:05:31.221Z,34.90
2019-05-19T07:08:07.562Z,35.10
2019-05-19T07:10:42.222Z,35.20
2019-05-19T07:13:16.865Z,35.20
2019-05-19T07:15:51.603Z,35.20
2019-05-19T07:18:27.222Z,35.30
2019-05-19T07:21:03.650Z,34.90
2019-05-19T07:23:41.139Z,34.60
2019-05-19T07:26:15.975Z,34.50
2019-05-19T07:28:50.344Z,34.60
2019-05-19T07:31:25.276Z,34.70
2019-05-19T07:34:01.487Z,34.50
2019-05-19T07:36:40.269Z,34.50
2019-05-19T07:39:16.052Z,34.70
2019-05-19T07:41:50.740Z,34.70
2019-05-19T07:44:26.231Z,34.70
2019-05-19T07:47:02.099Z,34.70
2019-05-19T07:49:39.835Z,34.80
2019-05-19T07:52:15.506Z,34.90
2019-05-19T07:54:50.526Z,35.10
2019-05-19T07:57:25.361Z,35.20
2019-05-19T07:59:59.906Z,35.10
2019-05-19T08:02:34.262Z,35.00
2019-05-19T08:05:10.149Z,35.10
2019-05-19T08:07:47.125Z,35.10
2019-05-19T08:10:21.762Z,35.10
2019-05-19T08:12:56.185Z,35.00
2019-05-19T08:15:31.908Z,35.30
2019-05-19T08:18:06.379Z,35.30
2019-05-19T08:20:42.481Z,35.00
2019-05-19T08:23:19.255Z,35.00
2019-05-19T08:25:53.600Z,35.10
2019-05-19T08:28:30.534Z,35.10
2019-05-19T08:31:04.999Z,34.90
2019-05-19T08:33:39.612Z,35.00
2019-05-19T08:36:14.218Z,35.00
2019-05-19T08:38:48.854Z,34.80
2019-05-19T08:41:23.500Z,34.70
2019-05-19T08:43:58.234Z,34.70
2019-05-19T08:46:33.505Z,34.70
2019-05-19T08:49:08.217Z,34.60
2019-05-19T08:51:43.649Z,34.50
2019-05-19T08:54:19.021Z,34.50
2019-05-19T08:56:55.383Z,34.40
2019-05-19T08:59:30.221Z,34.30
2019-05-19T09:02:04.858Z,34.20
2019-05-19T09:04:41.973Z,34.20
2019-05-19T09:07:18.066Z,34.30
2019-05-19T09:09:55.691Z,34.40
2019-05-19T09:12:30.700Z,34.20
2019-05-19T09:15:10.497Z,34.00
2019-05-19T09:17:45.491Z,33.80
2019-05-19T09:20:20.168Z,33.70
2019-05-19T09:22:54.986Z,33.70
2019-05-19T09:25:29.709Z,33.70
2019-05-19T09:28:04.441Z,33.70
2019-05-19T09:30:39.404Z,33.70
2019-05-19T09:33:13.982Z,33.80
2019-05-19T09:35:48.766Z,33.70
2019-05-19T09:38:23.512Z,33.60
2019-05-19T09:40:58.553Z,33.70
2019-05-19T09:43:33.278Z,33.80
2019-05-19T09:46:08.320Z,33.80
2019-05-19T09:48:43.522Z,34.10
2019-05-19T09:51:18.327Z,34.30
2019-05-19T09:53:53.178Z,34.80
2019-05-19T09:56:27.835Z,36.50
2019-05-19T09:59:02.572Z,37.90
2019-05-19T10:01:37.394Z,38.80
2019-05-19T10:04:15.479Z,39.70
2019-05-19T10:06:51.223Z,39.80
2019-05-19T10:09:37.030Z,40.00
2019-05-19T10:12:12.689Z,40.00
2019-05-19T10:14:47.270Z,41.00
2019-05-19T10:17:21.911Z,40.00
2019-05-19T10:19:57.378Z,40.60
2019-05-19T10:22:34.043Z,38.70
2019-05-19T10:25:21.514Z,38.30
2019-05-19T10:27:49.059Z,36.30
2019-05-19T10:30:24.680Z,34.90
2019-05-19T10:32:59.298Z,34.10
2019-05-19T10:35:33.615Z,33.40
2019-05-19T10:38:08.585Z,33.10
2019-05-19T10:40:43.512Z,32.80
2019-05-19T10:43:18.405Z,32.70
2019-05-19T10:45:54.604Z,32.60
2019-05-19T10:48:29.146Z,32.50
2019-05-19T10:51:04.222Z,32.00
2019-05-19T10:53:42.777Z,31.90
2019-05-19T10:56:19.142Z,31.90
2019-05-19T10:58:54.777Z,31.80
2019-05-19T11:01:30.539Z,31.40
2019-05-19T11:04:05.023Z,31.20
2019-05-19T11:06:40.272Z,31.20
2019-05-19T11:09:15.437Z,31.10
2019-05-19T11:11:52.097Z,31.00
2019-05-19T11:14:27.401Z,31.10
2019-05-19T11:17:04.059Z,31.10
2019-05-19T11:19:39.752Z,30.80
2019-05-19T11:22:14.542Z,30.70
2019-05-19T11:24:49.549Z,30.70
2019-05-19T11:27:24.800Z,30.60
2019-05-19T11:29:59.613Z,30.60
2019-05-19T11:32:34.353Z,30.40
2019-05-19T11:35:10.205Z,30.30
2019-05-19T11:37:45.407Z,30.40
2019-05-19T11:40:20.245Z,30.30
2019-05-19T11:42:55.273Z,30.10
2019-05-19T11:45:31.474Z,29.90
2019-05-19T11:48:06.257Z,29.60
2019-05-19T11:50:42.201Z,29.70
2019-05-19T11:53:16.945Z,29.70
2019-05-19T11:56:04.333Z,29.50
2019-05-19T11:58:27.733Z,29.30
2019-05-19T12:01:02.298Z,29.30
2019-05-19T12:03:36.904Z,29.00
2019-05-19T12:06:11.622Z,28.90
2019-05-19T12:08:47.334Z,28.90
2019-05-19T12:11:21.999Z,28.80
2019-05-19T12:19:47.906Z,28.80
2019-05-19T12:22:22.345Z,28.50
2019-05-19T12:24:57.022Z,28.40
2019-05-19T12:27:32.409Z,28.30
2019-05-19T12:30:07.999Z,28.50
2019-05-19T12:32:44.151Z,28.40
2019-05-19T12:35:20.925Z,28.20
2019-05-19T12:37:56.791Z,28.20
2019-05-19T12:40:31.427Z,27.90
2019-05-19T12:43:06.526Z,27.80
2019-05-19T12:45:41.104Z,27.70
2019-05-19T12:48:16.085Z,27.60
2019-05-19T12:50:50.854Z,27.60
2019-05-19T12:53:25.398Z,27.50
2019-05-19T12:55:59.993Z,27.40
2019-05-19T12:58:34.725Z,27.30
2019-05-19T13:01:11.325Z,27.30
2019-05-19T13:03:47.600Z,27.30
2019-05-19T13:06:21.945Z,27.20
2019-05-19T13:08:57.214Z,27.20
2019-05-19T13:11:31.830Z,27.20
2019-05-19T13:14:06.823Z,27.10
2019-05-19T13:16:44.589Z,27.00
2019-05-19T13:19:19.053Z,27.00
2019-05-19T13:21:54.050Z,27.10
2019-05-19T13:24:28.872Z,27.10
2019-05-19T13:27:03.319Z,26.80
2019-05-19T13:29:42.858Z,26.70
2019-05-19T13:32:18.592Z,26.60
2019-05-19T13:34:53.040Z,26.50
2019-05-19T13:37:27.679Z,26.50
2019-05-19T13:40:02.869Z,26.50
2019-05-19T13:42:39.002Z,26.40
2019-05-19T13:45:15.981Z,26.30
2019-05-19T13:47:52.211Z,26.20
2019-05-19T13:50:27.343Z,26.10
2019-05-19T13:53:02.973Z,26.00
2019-05-19T13:55:38.945Z,26.00
2019-05-19T13:58:15.431Z,25.90
2019-05-19T14:00:50.176Z,25.90
2019-05-19T14:03:26.304Z,25.70
2019-05-19T14:06:01.251Z,25.70
2019-05-19T14:08:36.073Z,25.70
2019-05-19T14:11:10.648Z,25.70
2019-05-19T14:13:45.454Z,25.60
2019-05-19T14:16:20.125Z,25.60
2019-05-19T14:18:55.036Z,25.60
2019-05-19T14:21:30.398Z,25.50
2019-05-19T14:24:06.708Z,25.50
2019-05-19T14:26:41.684Z,25.50
2019-05-19T14:29:16.809Z,25.40
2019-05-19T14:31:52.693Z,25.30
2019-05-19T14:34:27.621Z,25.30
2019-05-19T14:37:02.078Z,25.30
2019-05-19T14:39:36.570Z,25.20
2019-05-19T14:42:16.172Z,25.00
2019-05-19T14:44:50.736Z,24.90
2019-05-19T14:47:26.098Z,25.00
2019-05-19T14:50:07.545Z,25.20
2019-05-19T14:52:42.640Z,25.10
2019-05-19T14:55:17.648Z,24.90
2019-05-19T14:57:52.759Z,25.00
2019-05-19T15:00:32.628Z,24.90
2019-05-19T15:03:07.875Z,24.90
2019-05-19T15:05:43.570Z,24.90
2019-05-19T15:08:19.970Z,24.80
2019-05-19T15:10:54.678Z,24.70
2019-05-19T15:13:32.903Z,24.80
2019-05-19T15:16:07.540Z,24.80
2019-05-19T15:18:41.938Z,24.70
2019-05-19T15:21:31.916Z,24.70
2019-05-19T15:24:05.828Z,24.70
2019-05-19T15:26:40.092Z,24.60
2019-05-19T15:29:20.174Z,24.50
2019-05-19T15:32:04.253Z,24.60
2019-05-19T15:34:44.247Z,24.60
2019-05-19T15:37:18.626Z,24.40
2019-05-19T15:39:54.092Z,24.40
2019-05-19T15:42:28.639Z,24.20
2019-05-19T15:45:04.282Z,24.10
2019-05-19T15:47:40.907Z,24.00
2019-05-19T15:50:19.391Z,23.90
2019-05-19T15:52:54.458Z,23.80
2019-05-19T15:55:31.965Z,23.60
2019-05-19T15:58:16.084Z,23.50
2019-05-19T16:00:42.354Z,23.50
2019-05-19T16:03:18.433Z,23.50
2019-05-19T16:05:53.319Z,23.50
2019-05-19T16:08:29.521Z,23.40
2019-05-19T16:11:04.464Z,23.30
2019-05-19T16:13:42.123Z,23.30
2019-05-19T16:16:17.745Z,23.20
2019-05-19T16:18:56.939Z,23.10
2019-05-19T16:21:35.586Z,23.00
2019-05-19T16:24:16.063Z,23.00
2019-05-19T16:26:51.872Z,23.10
2019-05-19T16:29:30.654Z,23.00
2019-05-19T16:32:09.066Z,22.80
2019-05-19T16:34:45.505Z,22.70
2019-05-19T16:37:20.039Z,22.60
2019-05-19T16:39:55.082Z,22.50
2019-05-19T16:42:31.293Z,22.50
2019-05-19T16:45:06.241Z,22.40
2019-05-19T16:47:42.257Z,22.30
2019-05-19T16:50:16.860Z,22.30
2019-05-19T16:52:51.752Z,22.30
2019-05-19T16:55:32.852Z,22.20
2019-05-19T16:58:20.553Z,22.10
2019-05-19T17:00:43.892Z,22.10
2019-05-19T17:03:21.732Z,21.90
2019-05-19T17:05:56.915Z,21.80
2019-05-19T17:08:31.443Z,21.90
2019-05-19T17:11:17.652Z,21.90
2019-05-19T17:13:44.620Z,22.00
2019-05-19T17:16:23.113Z,21.90
2019-05-19T17:18:58.164Z,22.00
2019-05-19T17:21:33.109Z,21.90
2019-05-19T17:24:08.524Z,21.60
2019-05-19T17:26:43.407Z,21.70
2019-05-19T17:29:18.331Z,21.40
2019-05-19T17:32:05.298Z,21.40
2019-05-19T17:34:29.230Z,21.40
2019-05-19T17:37:04.224Z,21.30
2019-05-19T17:39:39.444Z,21.40
2019-05-19T17:42:14.271Z,21.20
2019-05-19T17:44:51.119Z,21.20
2019-05-19T17:47:27.140Z,21.10
2019-05-19T17:50:01.505Z,20.80
2019-05-19T17:52:36.847Z,21.00
2019-05-19T17:55:12.634Z,20.80
2019-05-19T17:58:04.333Z,20.80
2019-05-19T18:00:44.159Z,20.70
2019-05-19T18:03:19.310Z,20.70
2019-05-19T18:05:54.447Z,20.60
2019-05-19T18:08:29.263Z,20.60
2019-05-19T18:11:03.791Z,20.60
2019-05-19T18:13:38.177Z,20.60
2019-05-19T18:16:12.762Z,20.50
2019-05-19T18:18:47.539Z,20.50
2019-05-19T18:21:22.110Z,20.50
2019-05-19T18:23:57.568Z,20.50
2019-05-19T18:26:31.867Z,20.50
2019-05-19T18:29:06.356Z,20.50
2019-05-19T18:31:40.705Z,20.40
2019-05-19T18:34:15.172Z,20.40
2019-05-19T18:36:49.575Z,20.30
2019-05-19T18:39:23.822Z,20.10
2019-05-19T18:41:58.059Z,20.10
2019-05-19T18:44:32.548Z,20.10
2019-05-19T18:47:06.924Z,20.10
2019-05-19T18:49:41.233Z,20.00
2019-05-19T18:52:15.638Z,20.00
2019-05-19T18:54:51.054Z,20.10
2019-05-19T18:57:25.415Z,20.00
2019-05-19T18:59:59.816Z,20.10
2019-05-19T19:02:34.003Z,20.00
2019-05-19T19:05:09.439Z,19.90
2019-05-19T19:07:51.175Z,19.90
2019-05-19T19:10:27.269Z,19.90
2019-05-19T19:13:01.700Z,19.80
2019-05-19T19:15:36.144Z,19.90
2019-05-19T19:18:12.301Z,19.90
2019-05-19T19:20:46.694Z,20.00
2019-05-19T19:23:21.105Z,20.00
2019-05-19T19:25:55.387Z,20.00
2019-05-19T19:28:29.785Z,20.00
2019-05-19T19:31:04.179Z,20.00
2019-05-19T19:33:38.529Z,19.90
2019-05-19T19:36:12.942Z,19.80
2019-05-19T19:38:47.250Z,19.80
2019-05-19T19:41:21.673Z,19.60
2019-05-19T19:43:57.183Z,19.60
2019-05-19T19:46:32.695Z,19.30
2019-05-19T19:49:08.349Z,19.40
2019-05-19T19:51:43.016Z,19.30
2019-05-19T19:54:17.466Z,19.20
2019-05-19T19:56:51.829Z,19.10
2019-05-19T19:59:25.964Z,19.00
2019-05-19T20:02:01.354Z,19.00
2019-05-19T20:04:36.573Z,18.90
2019-05-19T20:07:10.925Z,18.90
2019-05-19T20:09:45.214Z,18.90
2019-05-19T20:12:19.563Z,18.80
2019-05-19T20:14:53.958Z,18.50
2019-05-19T20:17:28.383Z,18.70
2019-05-19T20:20:02.831Z,18.50
2019-05-19T20:22:38.354Z,18.60
2019-05-19T20:25:12.741Z,18.50
2019-05-19T20:27:47.414Z,18.50
2019-05-19T20:30:34.469Z,18.50
2019-05-19T20:32:57.374Z,18.50
2019-05-19T20:35:31.678Z,18.60
2019-05-19T20:38:06.044Z,18.60
2019-05-19T20:40:40.350Z,18.60
2019-05-19T20:43:14.689Z,18.40
2019-05-19T20:45:48.903Z,18.30
2019-05-19T20:48:23.496Z,18.40
2019-05-19T20:50:57.877Z,18.20
2019-05-19T20:53:32.244Z,18.20
2019-05-19T20:56:06.506Z,18.10
2019-05-19T20:58:40.851Z,18.20
2019-05-19T21:01:16.210Z,18.10
2019-05-19T21:03:50.936Z,18.10
2019-05-19T21:06:28.174Z,17.90
2019-05-19T21:09:02.534Z,17.70
2019-05-19T21:11:37.962Z,17.80
2019-05-19T21:14:12.300Z,17.90
2019-05-19T21:16:46.698Z,17.80
2019-05-19T21:19:21.458Z,17.80
2019-05-19T21:21:55.945Z,17.80
2019-05-19T21:24:30.345Z,17.90
2019-05-19T21:27:04.758Z,17.70
2019-05-19T21:29:39.194Z,17.70
2019-05-19T21:32:13.563Z,17.70
2019-05-19T21:34:47.856Z,17.60
2019-05-19T21:37:22.330Z,17.50
2019-05-19T21:39:56.569Z,17.50
2019-05-19T21:42:31.914Z,17.60
2019-05-19T21:45:06.399Z,17.70
2019-05-19T21:47:40.698Z,17.70
2019-05-19T21:50:15.087Z,17.60
2019-05-19T21:52:49.538Z,17.60
2019-05-19T21:55:23.927Z,17.40
2019-05-19T21:57:58.375Z,17.60
2019-05-19T22:00:32.975Z,17.70
2019-05-19T22:03:08.954Z,17.60
2019-05-19T22:05:52.857Z,17.30
2019-05-19T22:08:19.735Z,17.20
2019-05-19T22:10:54.133Z,17.30
2019-05-19T22:13:28.487Z,17.40
2019-05-19T22:16:12.226Z,17.50
2019-05-19T22:18:38.536Z,17.60
2019-05-19T22:21:12.991Z,17.50
2019-05-19T22:23:47.340Z,17.40
2019-05-19T22:26:21.691Z,17.40
2019-05-19T22:28:55.950Z,17.40
2019-05-19T22:31:36.973Z,17.30
2019-05-19T22:34:06.179Z,17.40
2019-05-19T22:36:40.578Z,17.40
2019-05-19T22:39:15.012Z,17.30
2019-05-19T22:41:49.366Z,17.20
2019-05-19T22:44:24.632Z,17.20
2019-05-19T22:46:59.035Z,17.30
2019-05-19T22:49:33.491Z,17.10
2019-05-19T22:52:07.829Z,17.10
2019-05-19T22:54:42.126Z,17.10
2019-05-19T22:57:18.041Z,17.10
2019-05-19T22:59:52.132Z,17.00
2019-05-19T23:02:26.447Z,16.90
2019-05-19T23:05:00.676Z,16.70
2019-05-19T23:07:35.180Z,16.80
2019-05-19T23:10:09.763Z,17.00
2019-05-19T23:12:44.282Z,17.00
2019-05-19T23:15:19.256Z,16.90
2019-05-19T23:17:56.760Z,16.80
2019-05-19T23:20:31.132Z,16.80
2019-05-19T23:23:05.509Z,16.90
2019-05-19T23:25:39.777Z,16.70
2019-05-19T23:28:14.116Z,16.70
2019-05-19T23:30:48.392Z,16.70
2019-05-19T23:33:22.831Z,16.70
2019-05-19T23:35:57.035Z,16.70
2019-05-19T23:38:31.538Z,16.70
2019-05-19T23:41:05.974Z,16.60
2019-05-19T23:43:40.362Z,16.80
2019-05-19T23:46:14.808Z,16.80
2019-05-19T23:48:49.203Z,16.60
2019-05-19T23:51:23.547Z,16.70
2019-05-19T23:53:57.880Z,17.00
2019-05-19T23:56:32.297Z,17.20
2019-05-19T23:59:06.707Z,17.30
